createdAt,value
2023-09-01T00:01:46.788Z,3.22
2023-09-01T00:04:46.598Z,2.83
2023-09-01T00:07:32.603Z,2.65
2023-09-01T00:10:17.877Z,2.53
2023-09-01T00:13:03.879Z,2.75
2023-09-01T00:15:49.299Z,2.78
2023-09-01T00:18:34.831Z,2.63
2023-09-01T00:21:20.300Z,3.47
2023-09-01T00:24:05.777Z,2.60
2023-09-01T00:26:51.456Z,2.97
2023-09-01T00:29:37.772Z,3.83
2023-09-01T00:32:22.892Z,3.25
2023-09-01T00:35:08.758Z,3.13
2023-09-01T00:37:54.166Z,2.40
2023-09-01T00:40:39.688Z,2.58
2023-09-01T00:43:26.218Z,2.45
2023-09-01T00:46:12.632Z,2.50
2023-09-01T00:48:58.967Z,3.25
2023-09-01T00:51:47.947Z,3.38
2023-09-01T00:54:34.255Z,2.30
2023-09-01T00:57:21.987Z,2.67
2023-09-01T01:00:08.022Z,3.63
2023-09-01T01:02:53.592Z,2.65
2023-09-01T01:05:45.644Z,3.28
2023-09-01T01:08:39.071Z,2.78
2023-09-01T01:11:35.716Z,3.28
2023-09-01T01:14:32.773Z,3.75
2023-09-01T01:17:20.820Z,3.53
2023-09-01T01:20:23.040Z,2.70
2023-09-01T01:25:56.823Z,2.65
2023-09-01T01:28:42.283Z,2.72
2023-09-01T01:31:28.316Z,2.63
2023-09-01T01:34:37.433Z,2.55
2023-09-01T01:37:33.959Z,2.42
2023-09-01T01:40:21.401Z,2.65
2023-09-01T01:43:10.787Z,2.30
2023-09-01T01:45:59.008Z,2.25
2023-09-01T01:48:44.540Z,2.70
2023-09-01T01:51:30.033Z,3.75
2023-09-01T01:54:15.431Z,2.40
2023-09-01T01:57:01.279Z,3.47
2023-09-01T01:59:47.020Z,2.88
2023-09-01T02:02:32.430Z,2.85
2023-09-01T02:05:18.230Z,3.47
2023-09-01T02:08:06.924Z,3.22
2023-09-01T02:10:52.072Z,3.40
2023-09-01T02:13:37.485Z,2.97
2023-09-01T02:16:25.369Z,2.80
2023-09-01T02:19:13.268Z,3.53
2023-09-01T02:21:58.891Z,4.30
2023-09-01T02:24:44.474Z,2.97
2023-09-01T02:27:29.924Z,2.97
2023-09-01T02:30:15.562Z,3.58
2023-09-01T02:33:00.949Z,3.92
2023-09-01T02:35:49.248Z,3.08
2023-09-01T02:38:34.552Z,3.90
2023-09-01T02:41:20.717Z,4.35
2023-09-01T02:44:06.583Z,4.13
2023-09-01T02:46:51.666Z,4.03
2023-09-01T02:49:37.166Z,4.93
2023-09-01T02:52:22.756Z,4.15
2023-09-01T02:55:09.506Z,5.05
2023-09-01T02:57:54.858Z,4.55
2023-09-01T03:00:40.379Z,5.20
2023-09-01T03:03:26.875Z,4.25
2023-09-01T03:06:12.456Z,4.72
2023-09-01T03:08:59.422Z,3.95
2023-09-01T03:11:45.054Z,4.10
2023-09-01T03:14:30.714Z,3.78
2023-09-01T03:17:16.067Z,4.00
2023-09-01T03:20:02.116Z,4.85
2023-09-01T03:22:47.909Z,3.95
2023-09-01T03:25:33.434Z,5.22
2023-09-01T03:28:20.135Z,4.32
2023-09-01T03:31:11.070Z,5.00
2023-09-01T03:33:58.842Z,4.45
2023-09-01T03:36:44.497Z,4.22
2023-09-01T03:39:30.453Z,4.63
2023-09-01T03:42:15.959Z,4.90
2023-09-01T03:45:01.540Z,5.82
2023-09-01T03:47:46.959Z,5.00
2023-09-01T03:50:35.263Z,5.28
2023-09-01T03:53:20.436Z,5.20
2023-09-01T03:56:10.981Z,5.68
2023-09-01T03:58:56.340Z,5.70
2023-09-01T04:01:44.298Z,5.53
2023-09-01T04:04:29.747Z,4.68
2023-09-01T04:07:15.244Z,5.05
2023-09-01T04:10:00.879Z,6.25
2023-09-01T04:12:46.295Z,6.13
2023-09-01T04:15:31.766Z,5.30
2023-09-01T04:18:17.574Z,6.05
2023-09-01T04:21:03.200Z,5.47
2023-09-01T04:23:49.938Z,5.90
2023-09-01T04:26:35.289Z,6.00
2023-09-01T04:29:20.791Z,6.50
2023-09-01T04:32:06.339Z,6.25
2023-09-01T04:34:51.672Z,9.10
2023-09-01T04:37:37.490Z,6.57
2023-09-01T04:40:23.991Z,5.78
2023-09-01T04:43:09.258Z,6.38
2023-09-01T04:45:55.824Z,5.47
2023-09-01T04:48:42.194Z,5.72
2023-09-01T04:51:27.688Z,5.75
2023-09-01T04:54:13.080Z,6.43
2023-09-01T04:56:58.959Z,5.43
2023-09-01T04:59:46.212Z,5.43
2023-09-01T05:02:31.781Z,6.70
2023-09-01T05:05:17.381Z,6.43
2023-09-01T05:08:04.524Z,7.05
2023-09-01T05:10:51.502Z,6.53
2023-09-01T05:13:37.635Z,6.07
2023-09-01T05:16:23.024Z,5.65
2023-09-01T05:19:08.349Z,6.93
2023-09-01T05:21:53.989Z,11.70
2023-09-01T05:24:40.231Z,8.85
2023-09-01T05:27:25.584Z,8.45
2023-09-01T05:30:13.829Z,7.03
2023-09-01T05:32:59.325Z,7.88
2023-09-01T05:35:44.821Z,8.25
2023-09-01T05:38:30.481Z,7.55
2023-09-01T05:41:15.767Z,6.50
2023-09-01T05:44:01.403Z,7.20
2023-09-01T05:46:47.330Z,9.35
2023-09-01T05:49:33.720Z,9.82
2023-09-01T05:52:19.475Z,9.00
2023-09-01T05:55:05.381Z,9.63
2023-09-01T05:57:50.759Z,8.07
2023-09-01T06:00:36.205Z,7.40
2023-09-01T06:03:21.733Z,5.60
2023-09-01T06:06:08.706Z,7.85
2023-09-01T06:08:54.103Z,8.30
2023-09-01T06:11:40.407Z,8.07
2023-09-01T06:14:25.555Z,6.07
2023-09-01T06:17:11.091Z,6.43
2023-09-01T06:19:56.549Z,5.20
2023-09-01T06:22:41.924Z,5.70
2023-09-01T06:25:27.439Z,7.45
2023-09-01T06:28:13.907Z,6.07
2023-09-01T06:30:59.483Z,5.95
2023-09-01T06:33:46.005Z,7.00
2023-09-01T06:36:31.628Z,5.75
2023-09-01T06:39:19.417Z,8.35
2023-09-01T06:42:05.832Z,5.30
2023-09-01T06:44:51.805Z,5.78
2023-09-01T06:47:37.217Z,6.40
2023-09-01T06:50:23.276Z,4.75
2023-09-01T06:53:08.746Z,5.45
2023-09-01T06:55:54.293Z,4.40
2023-09-01T06:58:39.828Z,6.43
2023-09-01T07:01:25.181Z,5.75
2023-09-01T07:04:10.639Z,5.85
2023-09-01T07:06:56.121Z,5.25
2023-09-01T07:09:41.779Z,5.18
2023-09-01T07:12:27.250Z,5.95
2023-09-01T07:15:12.877Z,5.68
2023-09-01T07:17:58.273Z,6.28
2023-09-01T07:20:46.777Z,5.85
2023-09-01T07:23:32.516Z,5.15
2023-09-01T07:26:18.121Z,6.30
2023-09-01T07:29:03.635Z,6.13
2023-09-01T07:31:49.131Z,7.20
2023-09-01T07:34:34.998Z,4.80
2023-09-01T07:37:20.269Z,6.97
2023-09-01T07:40:06.168Z,5.80
2023-09-01T07:42:51.838Z,7.00
2023-09-01T07:45:37.598Z,7.05
2023-09-01T07:48:23.340Z,8.75
2023-09-01T07:51:09.053Z,5.28
2023-09-01T07:53:55.643Z,6.65
2023-09-01T07:56:40.846Z,5.55
2023-09-01T07:59:26.435Z,7.25
2023-09-01T08:02:11.737Z,6.07
2023-09-01T08:04:57.295Z,6.07
2023-09-01T08:07:42.689Z,6.35
2023-09-01T08:10:28.155Z,8.02
2023-09-01T08:13:13.659Z,9.40
2023-09-01T08:15:59.035Z,8.43
2023-09-01T08:18:44.550Z,6.55
2023-09-01T08:21:31.666Z,8.02
2023-09-01T08:24:17.042Z,8.20
2023-09-01T08:27:02.561Z,7.53
2023-09-01T08:29:48.030Z,7.90
2023-09-01T08:32:34.528Z,9.93
2023-09-01T08:35:19.742Z,8.23
2023-09-01T08:38:06.188Z,9.48
2023-09-01T08:40:59.483Z,8.00
2023-09-01T08:43:49.252Z,8.85
2023-09-01T08:46:36.422Z,7.97
2023-09-01T08:49:21.954Z,8.65
2023-09-01T08:52:07.390Z,8.95
2023-09-01T08:54:53.085Z,7.90
2023-09-01T08:57:39.257Z,7.40
2023-09-01T09:00:24.482Z,7.80
2023-09-01T09:03:12.715Z,6.88
2023-09-01T09:05:57.902Z,7.30
2023-09-01T09:08:43.609Z,5.82
2023-09-01T09:11:29.081Z,6.28
2023-09-01T09:14:14.567Z,8.40
2023-09-01T09:17:00.183Z,7.35
2023-09-01T09:19:57.903Z,6.55
2023-09-01T09:22:53.754Z,9.10
2023-09-01T09:25:39.336Z,7.68
2023-09-01T09:28:24.727Z,6.82
2023-09-01T09:31:10.270Z,5.63
2023-09-01T09:33:55.884Z,7.25
2023-09-01T09:36:41.399Z,6.78
2023-09-01T09:39:28.358Z,7.07
2023-09-01T09:42:13.622Z,6.20
2023-09-01T09:45:00.702Z,7.95
2023-09-01T09:47:47.037Z,8.68
2023-09-01T09:50:34.326Z,6.93
2023-09-01T09:53:24.610Z,6.28
2023-09-01T09:56:34.708Z,7.45
2023-09-01T09:59:29.250Z,7.80
2023-09-01T10:02:36.689Z,5.82
2023-09-01T10:05:24.111Z,8.82
2023-09-01T10:08:10.118Z,9.10
2023-09-01T10:10:58.221Z,7.30
2023-09-01T10:13:48.439Z,7.05
2023-09-01T10:16:33.931Z,6.18
2023-09-01T10:19:21.713Z,5.30
2023-09-01T10:22:08.111Z,8.73
2023-09-01T10:25:16.674Z,6.70
2023-09-01T10:28:11.796Z,6.95
2023-09-01T10:31:21.393Z,5.85
2023-09-01T10:34:14.428Z,5.68
2023-09-01T10:37:27.217Z,4.70
2023-09-01T10:40:46.550Z,4.80
2023-09-01T10:43:34.984Z,5.85
2023-09-01T10:46:23.316Z,4.95
2023-09-01T10:49:11.084Z,4.97
2023-09-01T10:52:13.407Z,5.60
2023-09-01T10:57:50.238Z,6.45
2023-09-01T11:00:35.781Z,5.50
2023-09-01T11:03:34.048Z,5.20
2023-09-01T11:06:19.523Z,5.32
2023-09-01T11:09:04.836Z,5.45
2023-09-01T11:11:50.864Z,5.28
2023-09-01T11:14:39.354Z,5.05
2023-09-01T11:17:42.332Z,4.60
2023-09-01T11:20:30.467Z,7.28
2023-09-01T11:23:26.222Z,4.85
2023-09-01T11:26:13.724Z,4.55
2023-09-01T11:28:59.541Z,4.78
2023-09-01T11:31:45.150Z,2.83
2023-09-01T11:34:39.952Z,5.47
2023-09-01T11:37:38.956Z,4.50
2023-09-01T11:40:26.374Z,4.47
2023-09-01T11:43:12.135Z,4.93
2023-09-01T11:45:57.622Z,4.15
2023-09-01T11:48:43.211Z,4.57
2023-09-01T11:51:37.792Z,5.10
2023-09-01T11:54:23.011Z,6.65
2023-09-01T11:57:15.736Z,4.60
2023-09-01T12:00:00.987Z,5.53
2023-09-01T12:02:46.568Z,5.57
2023-09-01T12:05:40.111Z,4.20
2023-09-01T12:08:26.606Z,5.57
2023-09-01T12:11:13.989Z,5.45
2023-09-01T12:14:26.681Z,5.35
2023-09-01T12:17:20.417Z,4.65
2023-09-01T12:20:07.582Z,4.10
2023-09-01T12:22:53.254Z,4.22
2023-09-01T12:25:38.659Z,4.97
2023-09-01T12:28:26.979Z,4.47
2023-09-01T12:31:13.229Z,4.45
2023-09-01T12:33:58.941Z,4.20
2023-09-01T12:36:44.380Z,5.13
2023-09-01T12:39:29.847Z,5.28
2023-09-01T12:42:15.245Z,4.38
2023-09-01T12:45:00.824Z,5.25
2023-09-01T12:47:46.431Z,4.15
2023-09-01T12:50:32.309Z,4.32
2023-09-01T12:53:18.076Z,5.45
2023-09-01T12:56:04.028Z,4.68
2023-09-01T12:58:49.455Z,4.70
2023-09-01T13:01:34.887Z,4.38
2023-09-01T13:04:20.287Z,6.32
2023-09-01T13:07:05.765Z,4.15
2023-09-01T13:09:53.464Z,4.72
2023-09-01T13:12:38.996Z,3.78
2023-09-01T13:15:24.712Z,4.18
2023-09-01T13:18:13.976Z,5.30
2023-09-01T13:20:59.323Z,5.63
2023-09-01T13:23:44.655Z,4.15
2023-09-01T13:26:29.999Z,4.72
2023-09-01T13:29:15.321Z,5.20
2023-09-01T13:32:00.797Z,5.13
2023-09-01T13:34:46.416Z,5.90
2023-09-01T13:37:31.973Z,5.32
2023-09-01T13:40:17.446Z,4.72
2023-09-01T13:43:02.960Z,4.88
2023-09-01T13:45:48.439Z,4.97
2023-09-01T13:48:33.976Z,5.90
2023-09-01T13:51:19.504Z,4.30
2023-09-01T13:54:04.988Z,5.95
2023-09-01T13:56:50.461Z,5.43
2023-09-01T13:59:35.663Z,4.57
2023-09-01T14:02:21.371Z,4.10
2023-09-01T14:05:06.686Z,4.65
2023-09-01T14:07:52.230Z,5.35
2023-09-01T14:10:37.892Z,5.45
2023-09-01T14:13:23.596Z,4.70
2023-09-01T14:16:11.946Z,4.22
2023-09-01T14:18:57.461Z,4.82
2023-09-01T14:21:43.064Z,5.85
2023-09-01T14:24:28.517Z,4.80
2023-09-01T14:27:14.049Z,5.47
2023-09-01T14:29:59.492Z,5.13
2023-09-01T14:32:44.911Z,5.32
2023-09-01T14:35:30.296Z,5.70
2023-09-01T14:38:15.691Z,5.28
2023-09-01T14:41:01.256Z,5.45
2023-09-01T14:43:47.279Z,4.70
2023-09-01T14:46:33.864Z,4.93
2023-09-01T14:49:19.984Z,6.13
2023-09-01T14:52:05.646Z,5.38
2023-09-01T14:54:51.487Z,5.15
2023-09-01T14:57:36.831Z,5.18
2023-09-01T15:00:22.399Z,5.60
2023-09-01T15:03:07.989Z,6.40
2023-09-01T15:05:53.351Z,6.30
2023-09-01T15:08:39.154Z,4.47
2023-09-01T15:11:24.500Z,6.00
2023-09-01T15:14:10.045Z,7.43
2023-09-01T15:16:55.585Z,6.03
2023-09-01T15:19:44.167Z,5.20
2023-09-01T15:22:29.643Z,5.43
2023-09-01T15:25:15.175Z,6.30
2023-09-01T15:28:00.569Z,5.95
2023-09-01T15:30:46.087Z,6.65
2023-09-01T15:33:31.536Z,6.43
2023-09-01T15:36:17.315Z,6.32
2023-09-01T15:39:03.816Z,6.68
2023-09-01T15:41:50.139Z,6.47
2023-09-01T15:44:35.589Z,6.78
2023-09-01T15:47:21.113Z,8.43
2023-09-01T15:50:07.217Z,6.88
2023-09-01T15:52:52.839Z,5.97
2023-09-01T15:55:39.142Z,7.80
2023-09-01T15:58:24.669Z,6.65
2023-09-01T16:01:24.855Z,7.30
2023-09-01T16:04:11.978Z,8.75
2023-09-01T16:06:57.402Z,5.88
2023-09-01T16:09:43.489Z,7.30
2023-09-01T16:12:28.801Z,8.35
2023-09-01T16:15:14.315Z,6.40
2023-09-01T16:17:59.973Z,6.75
2023-09-01T16:20:45.092Z,7.85
2023-09-01T16:23:30.797Z,6.70
2023-09-01T16:26:16.088Z,6.82
2023-09-01T16:29:01.581Z,7.95
2023-09-01T16:31:46.942Z,7.47
2023-09-01T16:34:32.898Z,6.95
2023-09-01T16:37:18.338Z,5.85
2023-09-01T16:40:07.575Z,6.35
2023-09-01T16:42:54.255Z,6.63
2023-09-01T16:45:40.034Z,7.65
2023-09-01T16:48:25.524Z,6.97
2023-09-01T16:51:11.020Z,5.90
2023-09-01T16:53:56.334Z,6.90
2023-09-01T16:56:41.868Z,7.68
2023-09-01T16:59:28.826Z,5.93
2023-09-01T17:02:14.059Z,5.95
2023-09-01T17:04:59.602Z,6.88
2023-09-01T17:07:44.876Z,7.10
2023-09-01T17:10:30.447Z,6.97
2023-09-01T17:13:16.271Z,7.20
2023-09-01T17:16:01.845Z,6.80
2023-09-01T17:18:47.730Z,7.25
2023-09-01T17:21:32.917Z,6.63
2023-09-01T17:24:18.392Z,6.03
2023-09-01T17:27:04.010Z,7.30
2023-09-01T17:29:49.376Z,6.72
2023-09-01T17:32:34.921Z,7.40
2023-09-01T17:35:20.263Z,5.80
2023-09-01T17:38:05.774Z,5.78
2023-09-01T17:40:51.359Z,6.63
2023-09-01T17:43:36.771Z,5.55
2023-09-01T17:46:22.291Z,6.63
2023-09-01T17:49:07.736Z,5.20
2023-09-01T17:51:53.553Z,5.88
2023-09-01T17:54:39.082Z,6.65
2023-09-01T17:57:26.014Z,5.07
2023-09-01T18:00:12.112Z,7.13
2023-09-01T18:02:57.581Z,4.90
2023-09-01T18:05:42.862Z,4.65
2023-09-01T18:08:28.780Z,7.32
2023-09-01T18:11:17.708Z,6.20
2023-09-01T18:14:08.222Z,8.52
2023-09-01T18:16:53.537Z,7.40
2023-09-01T18:19:39.921Z,6.82
2023-09-01T18:22:25.208Z,8.43
2023-09-01T18:25:13.956Z,7.85
2023-09-01T18:27:59.649Z,7.75
2023-09-01T18:30:47.176Z,9.95
2023-09-01T18:33:34.985Z,11.80
2023-09-01T18:36:21.672Z,13.07
2023-09-01T18:39:07.313Z,14.50
2023-09-01T18:41:52.637Z,14.05
2023-09-01T18:44:41.909Z,12.52
2023-09-01T18:47:28.298Z,13.70
2023-09-01T18:50:15.047Z,12.40
2023-09-01T18:53:00.938Z,14.65
2023-09-01T18:55:47.168Z,13.35
2023-09-01T18:58:54.966Z,14.52
2023-09-01T19:01:40.160Z,14.90
2023-09-01T19:04:25.533Z,15.73
2023-09-01T19:07:12.813Z,17.85
2023-09-01T19:09:58.234Z,17.33
2023-09-01T19:12:48.714Z,17.25
2023-09-01T19:15:40.723Z,17.67
2023-09-01T19:18:32.803Z,18.80
2023-09-01T19:21:21.556Z,20.73
2023-09-01T19:24:07.542Z,21.15
2023-09-01T19:26:55.286Z,20.80
2023-09-01T19:29:40.753Z,21.00
2023-09-01T19:32:25.914Z,24.77
2023-09-01T19:35:12.365Z,22.50
2023-09-01T19:37:57.509Z,23.70
2023-09-01T19:40:52.147Z,24.33
2023-09-01T19:43:40.147Z,23.15
2023-09-01T19:46:25.522Z,25.15
2023-09-01T19:49:12.576Z,25.23
2023-09-01T19:51:57.880Z,32.45
2023-09-01T19:54:43.443Z,30.95
2023-09-01T19:57:28.862Z,31.83
2023-09-01T20:00:28.007Z,30.33
2023-09-01T20:03:18.172Z,32.25
2023-09-01T20:06:04.130Z,29.73
2023-09-01T20:08:49.528Z,34.42
2023-09-01T20:11:35.498Z,34.17
2023-09-01T20:14:23.129Z,38.78
2023-09-01T20:17:08.950Z,40.45
2023-09-01T20:19:54.935Z,46.05
2023-09-01T20:22:40.229Z,44.08
2023-09-01T20:25:27.824Z,49.63
2023-09-01T20:28:13.674Z,49.90
2023-09-01T20:30:59.477Z,48.72
2023-09-01T20:33:45.047Z,46.15
2023-09-01T20:36:30.546Z,50.70
2023-09-01T20:39:17.187Z,46.92
2023-09-01T20:42:03.525Z,46.50
2023-09-01T20:44:49.204Z,47.50
2023-09-01T20:47:35.409Z,46.53
2023-09-01T20:50:20.701Z,39.92
2023-09-01T20:53:06.479Z,37.90
2023-09-01T20:55:51.695Z,40.53
2023-09-01T20:58:37.301Z,39.15
2023-09-01T21:01:22.831Z,40.38
2023-09-01T21:04:08.258Z,47.53
2023-09-01T21:06:53.792Z,54.10
2023-09-01T21:09:39.429Z,59.97
2023-09-01T21:12:24.751Z,59.10
2023-09-01T21:15:11.066Z,60.50
2023-09-01T21:17:56.285Z,59.10
2023-09-01T21:20:41.701Z,58.85
2023-09-01T21:23:27.149Z,60.97
2023-09-01T21:26:12.590Z,58.33
2023-09-01T21:28:58.130Z,57.45
2023-09-01T21:31:45.200Z,56.70
2023-09-01T21:34:30.677Z,58.78
2023-09-01T21:37:16.228Z,53.28
2023-09-01T21:40:04.415Z,55.30
2023-09-01T21:42:49.803Z,50.65
2023-09-01T21:45:35.062Z,43.60
2023-09-01T21:48:20.593Z,36.90
2023-09-01T21:51:06.085Z,30.15
2023-09-01T21:53:51.556Z,31.00
2023-09-01T21:56:37.218Z,27.75
2023-09-01T21:59:22.599Z,30.23
2023-09-01T22:02:08.181Z,34.78
2023-09-01T22:04:53.601Z,38.35
2023-09-01T22:07:39.143Z,43.47
2023-09-01T22:10:24.599Z,46.45
2023-09-01T22:13:10.136Z,44.97
2023-09-01T22:15:55.741Z,48.20
2023-09-01T22:18:41.245Z,45.38
2023-09-01T22:21:27.979Z,46.85
2023-09-01T22:24:14.918Z,42.65
2023-09-01T22:27:00.440Z,45.65
2023-09-01T22:29:47.675Z,48.05
2023-09-01T22:32:33.099Z,44.83
2023-09-01T22:35:19.613Z,45.83
2023-09-01T22:38:12.641Z,46.15
2023-09-01T22:41:00.851Z,49.63
2023-09-01T22:43:47.353Z,53.50
2023-09-01T22:46:32.503Z,52.40
2023-09-01T22:49:19.299Z,53.35
2023-09-01T22:52:04.773Z,57.17
2023-09-01T22:54:50.185Z,48.20
2023-09-01T22:57:35.691Z,47.80
2023-09-01T23:00:21.078Z,55.15
2023-09-01T23:03:06.614Z,56.00
2023-09-01T23:05:52.244Z,57.92
2023-09-01T23:08:37.632Z,62.08
2023-09-01T23:11:23.097Z,70.63
2023-09-01T23:14:08.495Z,65.60
2023-09-01T23:16:54.239Z,70.40
2023-09-01T23:19:39.714Z,68.78
2023-09-01T23:22:27.850Z,65.55
2023-09-01T23:25:13.423Z,69.82
2023-09-01T23:27:58.864Z,65.10
2023-09-01T23:30:44.452Z,60.30
2023-09-01T23:33:30.139Z,68.80
2023-09-01T23:36:15.643Z,68.90
2023-09-01T23:39:01.133Z,71.35
2023-09-01T23:41:47.457Z,67.53
2023-09-01T23:44:32.640Z,67.63
2023-09-01T23:47:18.001Z,68.40
2023-09-01T23:50:05.063Z,70.53
2023-09-01T23:52:50.550Z,69.30
2023-09-01T23:55:35.961Z,67.25
2023-09-01T23:58:21.212Z,67.85
